AFL533 UUWW-UWKD
Flight info
| Callsign | AFL533 |
|---|---|
| Flight time | 1h 8m |
| Altitude | 37000 |
| Route | KOGOM3D KOGOM L94 EKPIR M864 INKEB L94 UNORO T788 KOROM KOROM1R |
| Aircraft | A320/M-SDE3FGHIRWY/LB1 |
Departure
| Time | 2026-05-06 09:23 |
|---|---|
| Airport | Vnukovo International Airport (UUWW) |
Arrival
| Time | 2026-05-06 10:31 |
|---|---|
| Airport | Kazan International Airport (UWKD) |
| Time | Latitude | Longitude | Altitude | Speed | Heading |
|---|---|---|---|---|---|
| 2026-05-06 08:53 | 55.60141 | 37.27765 | 680 ft | 0 kts | 64° |
| 2026-05-06 09:18 | 55.60151 | 37.27804 | 680 ft | 5 kts | 66° |
| 2026-05-06 09:18 | 55.60147 | 37.27873 | 680 ft | 7 kts | 116° |
| 2026-05-06 09:18 | 55.60120 | 37.27936 | 678 ft | 6 kts | 129° |
| 2026-05-06 09:19 | 55.60079 | 37.28057 | 680 ft | 15 kts | 108° |
| 2026-05-06 09:19 | 55.60078 | 37.28231 | 680 ft | 13 kts | 85° |
| 2026-05-06 09:19 | 55.60087 | 37.28380 | 679 ft | 11 kts | 82° |
| 2026-05-06 09:19 | 55.60115 | 37.28488 | 679 ft | 9 kts | 60° |
| 2026-05-06 09:20 | 55.60157 | 37.28554 | 677 ft | 9 kts | 43° |
| 2026-05-06 09:20 | 55.60211 | 37.28667 | 679 ft | 13 kts | 64° |
| 2026-05-06 09:20 | 55.60176 | 37.28769 | 677 ft | 10 kts | 133° |
| 2026-05-06 09:20 | 55.60098 | 37.28876 | 679 ft | 17 kts | 163° |
| 2026-05-06 09:21 | 55.59987 | 37.28924 | 685 ft | 19 kts | 166° |
| 2026-05-06 09:21 | 55.59939 | 37.28944 | 679 ft | 0 kts | 166° |
| 2026-05-06 09:21 | 55.59928 | 37.28949 | 681 ft | 9 kts | 166° |
| 2026-05-06 09:21 | 55.59828 | 37.28989 | 686 ft | 12 kts | 172° |
| 2026-05-06 09:22 | 55.59767 | 37.28869 | 687 ft | 3 kts | 249° |
| 2026-05-06 09:22 | 55.59756 | 37.28819 | 687 ft | 27 kts | 249° |
| 2026-05-06 09:22 | 55.59587 | 37.28069 | 683 ft | 101 kts | 248° |
| 2026-05-06 09:22 | 55.59253 | 37.26568 | 735 ft | 152 kts | 249° |
| 2026-05-06 09:23 | 55.58853 | 37.24796 | 1296 ft | 156 kts | 243° |
| 2026-05-06 09:23 | 55.58291 | 37.23177 | 2034 ft | 154 kts | 241° |
| 2026-05-06 09:23 | 55.57679 | 37.21647 | 2806 ft | 150 kts | 240° |
| 2026-05-06 09:23 | 55.57070 | 37.20143 | 3525 ft | 151 kts | 237° |
| 2026-05-06 09:24 | 55.56468 | 37.18650 | 4112 ft | 157 kts | 238° |
| 2026-05-06 09:24 | 55.55792 | 37.16953 | 4455 ft | 179 kts | 239° |
| 2026-05-06 09:24 | 55.55080 | 37.14992 | 4686 ft | 201 kts | 249° |
| 2026-05-06 09:24 | 55.54824 | 37.12462 | 5157 ft | 216 kts | 270° |
| 2026-05-06 09:25 | 55.54824 | 37.09797 | 6004 ft | 218 kts | 270° |
| 2026-05-06 09:25 | 55.54824 | 37.07092 | 6725 ft | 222 kts | 269° |
| 2026-05-06 09:25 | 55.55098 | 37.04469 | 6950 ft | 224 kts | 296° |
| 2026-05-06 09:25 | 55.56276 | 37.02640 | 7014 ft | 243 kts | 334° |
| 2026-05-06 09:26 | 55.58009 | 37.02125 | 7714 ft | 258 kts | 350° |
| 2026-05-06 09:26 | 55.59818 | 37.02099 | 8590 ft | 264 kts | 354° |
| 2026-05-06 09:26 | 55.61690 | 37.02369 | 9510 ft | 275 kts | 7° |
| 2026-05-06 09:26 | 55.63403 | 37.04110 | 10266 ft | 298 kts | 42° |
| 2026-05-06 09:27 | 55.64494 | 37.07345 | 10733 ft | 324 kts | 72° |
| 2026-05-06 09:27 | 55.64863 | 37.11340 | 11386 ft | 333 kts | 88° |
| 2026-05-06 09:27 | 55.64836 | 37.15482 | 12183 ft | 337 kts | 94° |
| 2026-05-06 09:27 | 55.64527 | 37.19603 | 12993 ft | 338 kts | 108° |
| 2026-05-06 09:28 | 55.63706 | 37.23502 | 13801 ft | 337 kts | 117° |
| 2026-05-06 09:28 | 55.62832 | 37.27307 | 14530 ft | 340 kts | 113° |
| 2026-05-06 09:28 | 55.62055 | 37.31284 | 15246 ft | 344 kts | 110° |
| 2026-05-06 09:28 | 55.61332 | 37.35359 | 15966 ft | 347 kts | 109° |
| 2026-05-06 09:29 | 55.60629 | 37.39477 | 16678 ft | 350 kts | 109° |
| 2026-05-06 09:29 | 55.59917 | 37.43617 | 17386 ft | 353 kts | 109° |
| 2026-05-06 09:29 | 55.59186 | 37.47776 | 18091 ft | 356 kts | 109° |
| 2026-05-06 09:29 | 55.58430 | 37.51970 | 18683 ft | 359 kts | 110° |
| 2026-05-06 09:30 | 55.57813 | 37.56236 | 19247 ft | 364 kts | 99° |
| 2026-05-06 09:30 | 55.57720 | 37.60714 | 19820 ft | 368 kts | 85° |
| 2026-05-06 09:30 | 55.58208 | 37.65159 | 20394 ft | 370 kts | 70° |
| 2026-05-06 09:30 | 55.59255 | 37.69314 | 20959 ft | 370 kts | 57° |
| 2026-05-06 09:31 | 55.60565 | 37.73261 | 21526 ft | 373 kts | 57° |
| 2026-05-06 09:31 | 55.61862 | 37.77183 | 22083 ft | 376 kts | 57° |
| 2026-05-06 09:31 | 55.63114 | 37.81295 | 22648 ft | 381 kts | 65° |
| 2026-05-06 09:31 | 55.63919 | 37.85793 | 23205 ft | 386 kts | 78° |
| 2026-05-06 09:32 | 55.64196 | 37.90546 | 23685 ft | 390 kts | 91° |
| 2026-05-06 09:32 | 55.63923 | 37.95325 | 24168 ft | 391 kts | 103° |
| 2026-05-06 09:32 | 55.63329 | 37.99973 | 24646 ft | 393 kts | 104° |
| 2026-05-06 09:32 | 55.62717 | 38.04718 | 25118 ft | 395 kts | 104° |
| 2026-05-06 09:33 | 55.62106 | 38.09483 | 25585 ft | 397 kts | 104° |
| 2026-05-06 09:33 | 55.61502 | 38.14221 | 26039 ft | 400 kts | 104° |
| 2026-05-06 09:33 | 55.60883 | 38.19056 | 26266 ft | 410 kts | 104° |
| 2026-05-06 09:33 | 55.60244 | 38.24053 | 26397 ft | 421 kts | 104° |
| 2026-05-06 09:34 | 55.59591 | 38.29152 | 26630 ft | 429 kts | 104° |
| 2026-05-06 09:34 | 55.58938 | 38.34327 | 26988 ft | 433 kts | 102° |
| 2026-05-06 09:34 | 55.58613 | 38.39638 | 27373 ft | 436 kts | 91° |
| 2026-05-06 09:34 | 55.58823 | 38.45012 | 27769 ft | 438 kts | 79° |
| 2026-05-06 09:35 | 55.59556 | 38.50196 | 28166 ft | 439 kts | 69° |
| 2026-05-06 09:35 | 55.60807 | 38.55150 | 28560 ft | 439 kts | 58° |
| 2026-05-06 09:35 | 55.62349 | 38.59794 | 28922 ft | 441 kts | 58° |
| 2026-05-06 09:35 | 55.63915 | 38.64496 | 29359 ft | 442 kts | 58° |
| 2026-05-06 09:36 | 55.65481 | 38.69219 | 29759 ft | 445 kts | 58° |
| 2026-05-06 09:36 | 55.67053 | 38.73984 | 30051 ft | 448 kts | 58° |
| 2026-05-06 09:36 | 55.68612 | 38.78730 | 30352 ft | 451 kts | 58° |
| 2026-05-06 09:36 | 55.70190 | 38.83553 | 30674 ft | 453 kts | 59° |
| 2026-05-06 09:37 | 55.71774 | 38.88402 | 31000 ft | 455 kts | 59° |
| 2026-05-06 09:37 | 55.73492 | 38.93148 | 31308 ft | 456 kts | 51° |
| 2026-05-06 09:37 | 55.75564 | 38.97413 | 31612 ft | 456 kts | 44° |
| 2026-05-06 09:37 | 55.77735 | 39.01461 | 31905 ft | 459 kts | 44° |
| 2026-05-06 09:38 | 55.79937 | 39.05592 | 32202 ft | 461 kts | 45° |
| 2026-05-06 09:38 | 55.82142 | 39.09761 | 32488 ft | 463 kts | 45° |
| 2026-05-06 09:38 | 55.84252 | 39.14131 | 32755 ft | 467 kts | 52° |
| 2026-05-06 09:38 | 55.86013 | 39.19026 | 32954 ft | 471 kts | 62° |
| 2026-05-06 09:39 | 55.87474 | 39.24265 | 33229 ft | 473 kts | 64° |
| 2026-05-06 09:39 | 55.88934 | 39.29548 | 33592 ft | 473 kts | 63° |
| 2026-05-06 09:39 | 55.90378 | 39.34738 | 33927 ft | 472 kts | 63° |
| 2026-05-06 09:39 | 55.91843 | 39.39980 | 34242 ft | 472 kts | 63° |
| 2026-05-06 09:40 | 55.93309 | 39.45218 | 34536 ft | 472 kts | 63° |
| 2026-05-06 09:40 | 55.94771 | 39.50467 | 34829 ft | 472 kts | 63° |
| 2026-05-06 09:40 | 55.97672 | 39.60983 | 35382 ft | 472 kts | 63° |
| 2026-05-06 09:41 | 55.99121 | 39.66277 | 35630 ft | 473 kts | 64° |
| 2026-05-06 09:41 | 56.00573 | 39.71496 | 35851 ft | 473 kts | 64° |
| 2026-05-06 09:41 | 56.01838 | 39.76934 | 36094 ft | 473 kts | 72° |
| 2026-05-06 09:41 | 56.02681 | 39.82624 | 36340 ft | 473 kts | 81° |
| 2026-05-06 09:42 | 56.03029 | 39.88454 | 36575 ft | 471 kts | 90° |
| 2026-05-06 09:42 | 56.03120 | 39.94328 | 36796 ft | 471 kts | 90° |
| 2026-05-06 09:42 | 56.03263 | 40.06023 | 36828 ft | 468 kts | 90° |
| 2026-05-06 09:43 | 56.03405 | 40.17598 | 36839 ft | 467 kts | 90° |
| 2026-05-06 09:43 | 56.03542 | 40.29229 | 36839 ft | 467 kts | 90° |
| 2026-05-06 09:44 | 56.03665 | 40.40776 | 36838 ft | 468 kts | 90° |
| 2026-05-06 09:44 | 56.03783 | 40.52428 | 36844 ft | 468 kts | 90° |
| 2026-05-06 09:45 | 56.03897 | 40.64101 | 36844 ft | 468 kts | 90° |
| 2026-05-06 09:45 | 56.03976 | 40.75690 | 36842 ft | 468 kts | 90° |
| 2026-05-06 09:46 | 56.04048 | 40.87333 | 36829 ft | 467 kts | 90° |
| 2026-05-06 09:46 | 56.04113 | 40.97004 | 36835 ft | 467 kts | 90° |
| 2026-05-06 09:47 | 56.04184 | 41.08645 | 36839 ft | 467 kts | 90° |
| 2026-05-06 09:47 | 56.04244 | 41.20275 | 36830 ft | 467 kts | 90° |
| 2026-05-06 09:48 | 56.04275 | 41.31840 | 36830 ft | 467 kts | 91° |
| 2026-05-06 09:48 | 56.04295 | 41.43441 | 36822 ft | 467 kts | 91° |
| 2026-05-06 09:49 | 56.04320 | 41.55095 | 36814 ft | 467 kts | 91° |
| 2026-05-06 09:49 | 56.04335 | 41.66661 | 36816 ft | 467 kts | 91° |
| 2026-05-06 09:50 | 56.04329 | 41.78306 | 36817 ft | 466 kts | 91° |
| 2026-05-06 09:50 | 56.04313 | 41.89913 | 36823 ft | 466 kts | 91° |
| 2026-05-06 09:51 | 56.04285 | 42.01433 | 36821 ft | 466 kts | 91° |
| 2026-05-06 09:51 | 56.04246 | 42.13063 | 36820 ft | 466 kts | 91° |
| 2026-05-06 09:52 | 56.04197 | 42.24673 | 36805 ft | 467 kts | 91° |
| 2026-05-06 09:52 | 56.04141 | 42.36297 | 36796 ft | 467 kts | 91° |
| 2026-05-06 09:53 | 56.04072 | 42.47845 | 36809 ft | 466 kts | 91° |
| 2026-05-06 09:53 | 56.03979 | 42.59449 | 36815 ft | 466 kts | 92° |
| 2026-05-06 09:54 | 56.03842 | 42.71071 | 36810 ft | 466 kts | 92° |
| 2026-05-06 09:54 | 56.03680 | 42.82620 | 36815 ft | 466 kts | 92° |
| 2026-05-06 09:55 | 56.03512 | 42.94157 | 36818 ft | 466 kts | 92° |
| 2026-05-06 09:55 | 56.03334 | 43.05796 | 36820 ft | 466 kts | 92° |
| 2026-05-06 09:56 | 56.03149 | 43.17310 | 36812 ft | 466 kts | 92° |
| 2026-05-06 09:56 | 56.02945 | 43.28929 | 36815 ft | 467 kts | 92° |
| 2026-05-06 09:57 | 56.03326 | 43.40526 | 36809 ft | 467 kts | 83° |
| 2026-05-06 09:57 | 56.04128 | 43.52064 | 36808 ft | 467 kts | 83° |
| 2026-05-06 09:58 | 56.04908 | 43.63554 | 36812 ft | 467 kts | 83° |
| 2026-05-06 09:58 | 56.05667 | 43.75114 | 36816 ft | 467 kts | 83° |
| 2026-05-06 09:59 | 56.06414 | 43.86634 | 36815 ft | 468 kts | 84° |
| 2026-05-06 09:59 | 56.07159 | 43.98206 | 36815 ft | 467 kts | 83° |
| 2026-05-06 10:00 | 56.07897 | 44.09779 | 36810 ft | 467 kts | 84° |
| 2026-05-06 10:00 | 56.08617 | 44.21269 | 36810 ft | 466 kts | 84° |
| 2026-05-06 10:01 | 56.09327 | 44.32817 | 36817 ft | 466 kts | 84° |
| 2026-05-06 10:01 | 56.10028 | 44.44355 | 36823 ft | 465 kts | 84° |
| 2026-05-06 10:02 | 56.10722 | 44.55912 | 36799 ft | 466 kts | 84° |
| 2026-05-06 10:02 | 56.11259 | 44.67418 | 36804 ft | 466 kts | 92° |
| 2026-05-06 10:03 | 56.11023 | 44.79052 | 36804 ft | 466 kts | 93° |
| 2026-05-06 10:03 | 56.10778 | 44.90644 | 36814 ft | 465 kts | 92° |
| 2026-05-06 10:04 | 56.10537 | 45.02146 | 36826 ft | 464 kts | 93° |
| 2026-05-06 10:04 | 56.10267 | 45.13720 | 36824 ft | 463 kts | 93° |
| 2026-05-06 10:05 | 56.09986 | 45.25235 | 36819 ft | 462 kts | 93° |
| 2026-05-06 10:05 | 56.09708 | 45.36739 | 36820 ft | 462 kts | 93° |
| 2026-05-06 10:06 | 56.09423 | 45.48175 | 36818 ft | 462 kts | 93° |
| 2026-05-06 10:06 | 56.09123 | 45.59660 | 36811 ft | 462 kts | 93° |
| 2026-05-06 10:07 | 56.08817 | 45.71185 | 36829 ft | 461 kts | 93° |
| 2026-05-06 10:07 | 56.08662 | 45.76851 | 36678 ft | 462 kts | 93° |
| 2026-05-06 10:07 | 56.08499 | 45.82636 | 35932 ft | 465 kts | 93° |
| 2026-05-06 10:08 | 56.08332 | 45.88406 | 35411 ft | 461 kts | 93° |
| 2026-05-06 10:08 | 56.08167 | 45.94123 | 34857 ft | 458 kts | 93° |
| 2026-05-06 10:08 | 56.08002 | 45.99809 | 34293 ft | 455 kts | 93° |
| 2026-05-06 10:08 | 56.07834 | 46.05383 | 33733 ft | 453 kts | 93° |
| 2026-05-06 10:09 | 56.07660 | 46.11004 | 33136 ft | 449 kts | 93° |
| 2026-05-06 10:09 | 56.07488 | 46.16553 | 32594 ft | 445 kts | 93° |
| 2026-05-06 10:09 | 56.07314 | 46.22063 | 32053 ft | 441 kts | 94° |
| 2026-05-06 10:09 | 56.07137 | 46.27550 | 31509 ft | 438 kts | 94° |
| 2026-05-06 10:10 | 56.06958 | 46.32984 | 30983 ft | 435 kts | 94° |
| 2026-05-06 10:10 | 56.06778 | 46.38368 | 30463 ft | 431 kts | 94° |
| 2026-05-06 10:10 | 56.06598 | 46.43712 | 29950 ft | 428 kts | 94° |
| 2026-05-06 10:10 | 56.06394 | 46.48937 | 29418 ft | 424 kts | 97° |
| 2026-05-06 10:11 | 56.05812 | 46.54066 | 28959 ft | 417 kts | 108° |
| 2026-05-06 10:11 | 56.04833 | 46.58902 | 28493 ft | 411 kts | 112° |
| 2026-05-06 10:11 | 56.03811 | 46.63648 | 28059 ft | 405 kts | 112° |
| 2026-05-06 10:11 | 56.02807 | 46.68331 | 27622 ft | 400 kts | 112° |
| 2026-05-06 10:12 | 56.01820 | 46.72955 | 27198 ft | 395 kts | 112° |
| 2026-05-06 10:12 | 56.00853 | 46.77487 | 26778 ft | 391 kts | 112° |
| 2026-05-06 10:12 | 55.99882 | 46.82017 | 26340 ft | 387 kts | 112° |
| 2026-05-06 10:12 | 55.98919 | 46.86493 | 25916 ft | 384 kts | 112° |
| 2026-05-06 10:13 | 55.97965 | 46.90923 | 25487 ft | 381 kts | 112° |
| 2026-05-06 10:13 | 55.97013 | 46.95331 | 25041 ft | 378 kts | 112° |
| 2026-05-06 10:13 | 55.96076 | 46.99658 | 24607 ft | 376 kts | 112° |
| 2026-05-06 10:13 | 55.95130 | 47.04012 | 24152 ft | 374 kts | 112° |
| 2026-05-06 10:14 | 55.94183 | 47.08345 | 23698 ft | 373 kts | 112° |
| 2026-05-06 10:14 | 55.93238 | 47.12663 | 23194 ft | 373 kts | 112° |
| 2026-05-06 10:14 | 55.92306 | 47.16910 | 22724 ft | 370 kts | 112° |
| 2026-05-06 10:14 | 55.91370 | 47.21175 | 22270 ft | 368 kts | 112° |
| 2026-05-06 10:15 | 55.90440 | 47.25419 | 21814 ft | 366 kts | 112° |
| 2026-05-06 10:15 | 55.89513 | 47.29644 | 21369 ft | 364 kts | 113° |
| 2026-05-06 10:15 | 55.88592 | 47.33830 | 20932 ft | 362 kts | 113° |
| 2026-05-06 10:15 | 55.87671 | 47.37996 | 20491 ft | 361 kts | 113° |
| 2026-05-06 10:16 | 55.86760 | 47.42093 | 20058 ft | 359 kts | 113° |
| 2026-05-06 10:16 | 55.85839 | 47.46223 | 19626 ft | 358 kts | 113° |
| 2026-05-06 10:16 | 55.84919 | 47.50351 | 19191 ft | 356 kts | 113° |
| 2026-05-06 10:16 | 55.84003 | 47.54450 | 18761 ft | 355 kts | 113° |
| 2026-05-06 10:17 | 55.83104 | 47.58479 | 18343 ft | 354 kts | 113° |
| 2026-05-06 10:17 | 55.82194 | 47.62563 | 17884 ft | 353 kts | 113° |
| 2026-05-06 10:17 | 55.81289 | 47.66621 | 17458 ft | 351 kts | 113° |
| 2026-05-06 10:17 | 55.80388 | 47.70643 | 17041 ft | 349 kts | 113° |
| 2026-05-06 10:18 | 55.79489 | 47.74645 | 16635 ft | 347 kts | 113° |
| 2026-05-06 10:18 | 55.78594 | 47.78620 | 16229 ft | 345 kts | 113° |
| 2026-05-06 10:18 | 55.77714 | 47.82528 | 15829 ft | 344 kts | 113° |
| 2026-05-06 10:18 | 55.76825 | 47.86466 | 15432 ft | 342 kts | 113° |
| 2026-05-06 10:19 | 55.75938 | 47.90391 | 15046 ft | 341 kts | 113° |
| 2026-05-06 10:19 | 55.75052 | 47.94300 | 14651 ft | 340 kts | 113° |
| 2026-05-06 10:19 | 55.74165 | 47.98194 | 14255 ft | 339 kts | 113° |
| 2026-05-06 10:19 | 55.73289 | 48.02033 | 13872 ft | 339 kts | 114° |
| 2026-05-06 10:20 | 55.72405 | 48.05910 | 13458 ft | 338 kts | 113° |
| 2026-05-06 10:20 | 55.71519 | 48.09790 | 13051 ft | 336 kts | 113° |
| 2026-05-06 10:20 | 55.70645 | 48.13611 | 12654 ft | 334 kts | 114° |
| 2026-05-06 10:20 | 55.69772 | 48.17419 | 12259 ft | 331 kts | 114° |
| 2026-05-06 10:21 | 55.68914 | 48.21156 | 11876 ft | 329 kts | 113° |
| 2026-05-06 10:21 | 55.68052 | 48.24901 | 11477 ft | 327 kts | 114° |
| 2026-05-06 10:21 | 55.67192 | 48.28623 | 11091 ft | 325 kts | 114° |
| 2026-05-06 10:21 | 55.66336 | 48.32316 | 10693 ft | 323 kts | 114° |
| 2026-05-06 10:22 | 55.65491 | 48.35963 | 10491 ft | 314 kts | 114° |
| 2026-05-06 10:22 | 55.64643 | 48.39641 | 10278 ft | 306 kts | 114° |
| 2026-05-06 10:22 | 55.63835 | 48.43125 | 9930 ft | 305 kts | 114° |
| 2026-05-06 10:22 | 55.63043 | 48.46608 | 9554 ft | 305 kts | 110° |
| 2026-05-06 10:23 | 55.62600 | 48.50276 | 9190 ft | 304 kts | 96° |
| 2026-05-06 10:23 | 55.62589 | 48.54008 | 8671 ft | 300 kts | 89° |
| 2026-05-06 10:23 | 55.62637 | 48.57643 | 7985 ft | 298 kts | 89° |
| 2026-05-06 10:23 | 55.62681 | 48.61326 | 7373 ft | 300 kts | 89° |
| 2026-05-06 10:24 | 55.62723 | 48.65053 | 6884 ft | 303 kts | 89° |
| 2026-05-06 10:24 | 55.62762 | 48.68785 | 6441 ft | 300 kts | 89° |
| 2026-05-06 10:24 | 55.62801 | 48.72470 | 5992 ft | 299 kts | 90° |
| 2026-05-06 10:24 | 55.62835 | 48.76106 | 5554 ft | 298 kts | 89° |
| 2026-05-06 10:25 | 55.62870 | 48.79773 | 5120 ft | 298 kts | 89° |
| 2026-05-06 10:25 | 55.62903 | 48.83409 | 4794 ft | 289 kts | 89° |
| 2026-05-06 10:25 | 55.62954 | 48.86890 | 4387 ft | 276 kts | 84° |
| 2026-05-06 10:25 | 55.63493 | 48.90054 | 3996 ft | 263 kts | 59° |
| 2026-05-06 10:26 | 55.64629 | 48.92462 | 3740 ft | 250 kts | 36° |
| 2026-05-06 10:26 | 55.66025 | 48.94189 | 3512 ft | 245 kts | 32° |
| 2026-05-06 10:26 | 55.67420 | 48.95874 | 3279 ft | 240 kts | 32° |
| 2026-05-06 10:26 | 55.68791 | 48.97529 | 3052 ft | 238 kts | 32° |
| 2026-05-06 10:27 | 55.70025 | 48.99427 | 2806 ft | 236 kts | 57° |
| 2026-05-06 10:27 | 55.70401 | 49.01204 | 2664 ft | 232 kts | 85° |
| 2026-05-06 10:27 | 55.70049 | 49.03878 | 2493 ft | 220 kts | 127° |
| 2026-05-06 10:27 | 55.68821 | 49.06645 | 2315 ft | 213 kts | 128° |
| 2026-05-06 10:28 | 55.68249 | 49.08100 | 2202 ft | 210 kts | 126° |
| 2026-05-06 10:28 | 55.67438 | 49.10213 | 2058 ft | 209 kts | 127° |
| 2026-05-06 10:28 | 55.66634 | 49.12308 | 1970 ft | 200 kts | 127° |
| 2026-05-06 10:28 | 55.65881 | 49.14268 | 1797 ft | 181 kts | 127° |
| 2026-05-06 10:29 | 55.65212 | 49.16009 | 1566 ft | 164 kts | 127° |
| 2026-05-06 10:29 | 55.64590 | 49.17620 | 1354 ft | 152 kts | 126° |
| 2026-05-06 10:29 | 55.64001 | 49.19145 | 1157 ft | 147 kts | 126° |
| 2026-05-06 10:29 | 55.63432 | 49.20620 | 982 ft | 143 kts | 128° |
| 2026-05-06 10:30 | 55.62882 | 49.22051 | 804 ft | 141 kts | 128° |
| 2026-05-06 10:30 | 55.62327 | 49.23489 | 617 ft | 141 kts | 128° |
| 2026-05-06 10:30 | 55.61768 | 49.24922 | 450 ft | 142 kts | 127° |
| 2026-05-06 10:30 | 55.61246 | 49.26260 | 409 ft | 113 kts | 123° |
| 2026-05-06 10:31 | 55.60906 | 49.27144 | 411 ft | 62 kts | 124° |
| 2026-05-06 10:31 | 55.60706 | 49.27653 | 409 ft | 52 kts | 125° |
| 2026-05-06 10:31 | 55.60496 | 49.28183 | 409 ft | 51 kts | 123° |
| 2026-05-06 10:31 | 55.60385 | 49.28541 | 414 ft | 13 kts | 70° |
| 2026-05-06 10:32 | 55.60451 | 49.28648 | 417 ft | 13 kts | 34° |
| 2026-05-06 10:32 | 55.60497 | 49.28706 | 414 ft | 0 kts | 36° |
| 2026-05-06 10:32 | 55.60526 | 49.28743 | 416 ft | 11 kts | 35° |
| 2026-05-06 10:32 | 55.60578 | 49.28831 | 407 ft | 12 kts | 71° |
| 2026-05-06 10:33 | 55.60571 | 49.29138 | 409 ft | 34 kts | 90° |
| 2026-05-06 10:33 | 55.60678 | 49.29385 | 409 ft | 16 kts | 68° |
| 2026-05-06 10:33 | 55.60697 | 49.29579 | 411 ft | 10 kts | 44° |
| 2026-05-06 10:33 | 55.60707 | 49.29593 | 415 ft | 0 kts | 33° |